Winchester, VA

2:02 PM EDT on July 01, 2015 (GMT -0400)
Health Professions Building | | Change Station
CLOSE
Current Station
Personal Weather Station
Location: Winchester, VA
Elevation: 873 ft
Nearby Weather Stations

Elev 873 ft 39.20 °N, 78.19 °W | Updated 0 second ago

Overcast
Overcast
82.0 °F
Feels Like 84 °F
N
2.0
Wind Variable Wind from South
Gusts 6.0 mph

Today
High -- | Low -- °F
--% Chance of Precip.
Yesterday
High -- | Low -- °F
Precip. -- in
5:50 AM 8:42 PM
Full, 100% visible
Pressure 29.88 in
Visibility 10.0 miles
Clouds Scattered Clouds 4400 ft
Mostly Cloudy 5000 ft
Overcast 8500 ft
Heat Index 84 °F
Dew Point 65 °F
Humidity 56%
Rainfall 0.00 in
Snow Depth Not available.
UV 4 out of 12
Pollen 4.90 out of 12
Air Quality Not available.
Flu Activity Not available.
METAR KOKV 011755Z AUTO 21005KT 10SM SCT044 BKN050 OVC085 28/17 A2988 RMK AO2

More Conditions Fewer Conditions

Pressure 29.88 in
Visibility 10.0 miles
Clouds Scattered Clouds 4400 ft
Mostly Cloudy 5000 ft
Overcast 8500 ft
Heat Index 84 °F
Dew Point 65 °F
Humidity 56%
Rainfall 0.00 in
Snow Depth Not available.
UV 4 out of 12
Pollen 4.90 out of 12
Air Quality Not available.
Flu Activity Not available.
METAR KOKV 011755Z AUTO 21005KT 10SM SCT044 BKN050 OVC085 28/17 A2988 RMK AO2

More Conditions Fewer Conditions

10-Day Weather Forecast

×

Almanac

Astronomy

Jul. 01, 2015 Rise Set
Actual Time
Civil Twilight
Nautical Twilight
Astronomical Twilight
Moon
Length of Visible Light
Length of Day
Tomorrow will be .
, % of the Moon is Illuminated

Today's Extremes

State Highs State Lows

Community

WunderPhotos

Upload Photos

1,834,222 photos uploaded!

WunderBlogs® & News

Nearby

Air Quality

  Air Quality AQ Index Pollutant
Not available.

Snow Depth

Station Depth Elevation

Earthquake Activity

City Distance Mag. Time & Date
Minimum magnitude displayed is 2.5.

Coastal Water Temperatures

Place Temperature

Stations

Nearby Weather Stations

Station Location Temp. Windchill Dew Point Humidity Wind Precip. Elev Updated Type